Time;durP1;ratioP1;P1;durP2;ratioP2;P2;SDS_P1;SDS_P2;PMS_P1;PMS_P2;Temp;Humidity;BMP_temperature;BMP_pressure;BME280_temperature;BME280_humidity;BME280_pressure;Samples;Min_cycle;Max_cycle;Signal;HPM_P1;HPM_P2
2023/08/09 00:00:50;;;;;;;0.60;0.60;;;14.10;99.90;;;;;;4996089;28;20057;-90
2023/08/09 00:03:15;;;;;;;0.60;0.60;;;14.20;99.90;;;;;;4995005;28;20046;-90
2023/08/09 00:05:50;;;;;;;0.60;0.60;;;14.20;99.90;;;;;;4996016;28;20045;-92
2023/08/09 00:08:16;;;;;;;0.60;0.60;;;14.00;99.90;;;;;;4996255;28;20042;-92
2023/08/09 00:10:41;;;;;;;0.60;0.60;;;13.90;99.90;;;;;;4995611;28;20488;-91
2023/08/09 00:13:22;;;;;;;0.60;0.60;;;13.80;99.90;;;;;;4993671;28;20547;-95
2023/08/09 00:16:03;;;;;;;0.60;0.60;;;13.80;99.90;;;;;;4989518;28;20050;-92
2023/08/09 00:18:29;;;;;;;0.60;0.60;;;14.20;99.90;;;;;;4996301;28;20045;-93
2023/08/09 00:21:01;;;;;;;0.60;0.60;;;13.80;99.90;;;;;;4997234;28;20042;-92
2023/08/09 00:23:29;;;;;;;0.60;0.60;;;13.80;99.90;;;;;;4997015;28;20057;-92
2023/08/09 00:25:58;;;;;;;0.60;0.60;;;13.80;99.90;;;;;;4997078;28;20665;-91
2023/08/09 00:28:24;;;;;;;0.60;0.60;;;13.80;99.90;;;;;;4995469;28;20073;-91
2023/08/09 00:30:52;;;;;;;0.60;0.60;;;14.10;99.90;;;;;;4996412;28;20077;-93
2023/08/09 00:33:19;;;;;;;0.60;0.60;;;13.80;99.90;;;;;;4995907;28;20121;-89
2023/08/09 00:35:55;;;;;;;0.60;0.60;;;14.20;99.90;;;;;;5011396;28;20046;-91
2023/08/09 00:38:24;;;;;;;0.60;0.60;;;14.20;99.90;;;;;;4994809;28;20483;-93
2023/08/09 00:40:49;;;;;;;0.50;0.50;;;14.30;99.90;;;;;;4996034;28;20515;-90
2023/08/09 00:43:18;;;;;;;0.60;0.60;;;14.10;99.90;;;;;;4996088;28;20046;-92
2023/08/09 00:45:47;;;;;;;0.60;0.60;;;14.00;99.90;;;;;;4995263;28;20554;-91
2023/08/09 00:48:15;;;;;;;0.60;0.60;;;13.90;99.90;;;;;;4996683;28;20057;-93
2023/08/09 00:50:41;;;;;;;0.50;0.50;;;14.30;99.90;;;;;;4995066;28;20050;-92
2023/08/09 00:53:07;;;;;;;0.60;0.60;;;14.30;99.90;;;;;;4994888;28;20099;-91
2023/08/09 00:55:33;;;;;;;0.60;0.60;;;14.10;99.90;;;;;;4994259;28;20774;-90
2023/08/09 00:58:08;;;;;;;0.60;0.60;;;14.10;99.90;;;;;;4993409;28;20039;-92
2023/08/09 01:00:46;;;;;;;0.60;0.60;;;14.30;99.90;;;;;;4992535;28;20046;-94
2023/08/09 01:03:15;;;;;;;0.60;0.60;;;14.30;99.90;;;;;;4995644;28;20045;-93
2023/08/09 01:06:01;;;;;;;0.60;0.60;;;14.30;99.90;;;;;;4994461;28;20042;-91
2023/08/09 01:08:48;;;;;;;0.60;0.60;;;14.00;99.90;;;;;;4993972;28;20045;-93
2023/08/09 01:11:29;;;;;;;0.55;0.55;;;14.00;99.90;;;;;;4995609;28;20081;-92
2023/08/09 01:14:05;;;;;;;0.60;0.60;;;14.20;99.90;;;;;;4994362;28;20050;-94
2023/08/09 01:16:37;;;;;;;0.60;0.60;;;13.90;99.90;;;;;;4993147;28;20053;-93
2023/08/09 01:19:26;;;;;;;0.60;0.60;;;13.90;99.90;;;;;;4993223;28;20042;-91
2023/08/09 01:21:55;;;;;;;0.60;0.60;;;13.90;99.90;;;;;;4995944;28;20050;-91
2023/08/09 01:24:38;;;;;;;0.50;0.50;;;13.80;99.90;;;;;;4995016;28;20056;-94
2023/08/09 01:27:48;;;;;;;0.50;0.50;;;14.20;99.90;;;;;;4995126;28;20049;-95
2023/08/09 01:30:22;;;;;;;0.50;0.50;;;13.80;99.90;;;;;;4994429;28;20559;-92
2023/08/09 01:33:25;;;;;;;0.50;0.50;;;14.20;99.90;;;;;;4999854;28;20093;-94
2023/08/09 01:36:11;;;;;;;0.50;0.50;;;13.80;99.90;;;;;;4985615;28;20369;-94
2023/08/09 01:39:13;;;;;;;0.50;0.50;;;14.10;99.90;;;;;;4992124;28;20050;-95
2023/08/09 01:41:39;;;;;;;0.60;0.60;;;13.70;99.90;;;;;;4996064;28;20133;-93
2023/08/09 01:44:11;;;;;;;0.60;0.60;;;14.10;99.90;;;;;;4993794;28;20060;-91
2023/08/09 01:46:37;;;;;;;0.50;0.50;;;13.80;99.90;;;;;;4994003;28;20845;-93
2023/08/09 01:49:11;;;;;;;0.52;0.52;;;14.00;99.90;;;;;;4993338;28;20056;-92
2023/08/09 01:51:38;;;;;;;0.60;0.60;;;14.00;99.90;;;;;;4994150;28;20048;-92
2023/08/09 01:54:06;;;;;;;0.50;0.50;;;13.90;99.90;;;;;;4995043;28;20045;-89
2023/08/09 01:56:49;;;;;;;0.50;0.50;;;13.70;99.90;;;;;;4993464;28;20042;-95
2023/08/09 01:59:18;;;;;;;0.55;0.55;;;13.70;99.90;;;;;;4994503;28;20054;-92
2023/08/09 02:02:07;;;;;;;0.60;0.60;;;14.10;99.90;;;;;;4995915;28;20052;-93
2023/08/09 02:04:36;;;;;;;0.60;0.60;;;13.90;99.90;;;;;;4995174;28;20052;-92
2023/08/09 02:07:08;;;;;;;0.50;0.50;;;13.80;99.90;;;;;;4994073;28;20050;-92
2023/08/09 02:09:34;;;;;;;0.50;0.50;;;14.00;99.90;;;;;;4993629;28;20042;-93
2023/08/09 02:12:24;;;;;;;0.60;0.60;;;14.00;99.90;;;;;;4993185;28;20041;-95
2023/08/09 02:14:46;;;;;;;0.60;0.60;;;13.60;99.90;;;;;;5008680;28;20041;-92
2023/08/09 02:17:15;;;;;;;0.60;0.60;;;14.10;99.90;;;;;;4993805;28;20052;-93
2023/08/09 02:19:44;;;;;;;0.50;0.50;;;14.10;99.90;;;;;;4977972;28;20129;-93
2023/08/09 02:22:12;;;;;;;0.60;0.60;;;13.80;99.90;;;;;;4994104;28;20045;-92
2023/08/09 02:24:37;;;;;;;0.60;0.60;;;14.10;99.90;;;;;;4992080;28;20042;-90
2023/08/09 02:27:06;;;;;;;0.60;0.60;;;13.80;99.90;;;;;;5008432;28;20401;-92
2023/08/09 02:29:32;;;;;;;0.60;0.60;;;13.60;99.90;;;;;;4994212;28;20049;-89
2023/08/09 02:32:52;;;;;;;0.50;0.50;;;13.80;99.90;;;;;;4995265;28;20064;-92
2023/08/09 02:35:18;;;;;;;0.60;0.60;;;14.10;99.90;;;;;;4994016;28;20050;-92
2023/08/09 02:37:44;;;;;;;0.55;0.55;;;13.70;99.90;;;;;;4994607;28;20052;-91
2023/08/09 02:40:13;;;;;;;0.50;0.50;;;13.90;99.90;;;;;;4993457;28;20696;-93
2023/08/09 02:42:39;;;;;;;0.60;0.60;;;14.00;99.90;;;;;;4988135;28;20049;-93
2023/08/09 02:45:06;;;;;;;0.50;0.50;;;14.10;99.90;;;;;;4988201;28;20041;-92
2023/08/09 02:47:31;;;;;;;0.60;0.60;;;13.80;99.90;;;;;;4989484;28;20055;-92
2023/08/09 02:50:06;;;;;;;0.50;0.50;;;13.60;99.90;;;;;;4986334;28;20050;-94
2023/08/09 02:52:36;;;;;;;0.77;0.77;;;13.70;99.90;;;;;;5003122;28;20089;-93
2023/08/09 02:55:04;;;;;;;0.60;0.60;;;13.60;99.90;;;;;;4989310;28;20099;-90
2023/08/09 02:57:38;;;;;;;0.50;0.50;;;13.80;99.90;;;;;;5000735;28;20050;-94
2023/08/09 03:00:06;;;;;;;0.50;0.50;;;13.70;99.90;;;;;;4986472;28;20049;-93
2023/08/09 03:02:32;;;;;;;0.50;0.50;;;13.60;99.90;;;;;;4986384;28;21316;-90
2023/08/09 03:05:00;;;;;;;0.50;0.50;;;13.90;99.90;;;;;;4988783;28;20065;-91
2023/08/09 03:07:31;;;;;;;0.60;0.60;;;13.80;99.90;;;;;;4988383;28;20042;-93
2023/08/09 03:09:57;;;;;;;0.55;0.55;;;13.60;99.90;;;;;;4993259;28;20219;-93
2023/08/09 03:12:23;;;;;;;0.60;0.60;;;13.70;99.90;;;;;;4992773;28;20056;-91
2023/08/09 03:14:49;;;;;;;0.57;0.57;;;13.70;99.90;;;;;;4993060;28;20048;-92
2023/08/09 03:17:14;;;;;;;0.60;0.60;;;13.50;99.90;;;;;;4993569;28;20049;-93
2023/08/09 03:19:40;;;;;;;0.73;0.73;;;13.90;99.90;;;;;;4993365;28;20112;-91
2023/08/09 03:22:06;;;;;;;0.60;0.60;;;13.90;99.90;;;;;;4994008;28;20521;-93
2023/08/09 03:24:33;;;;;;;0.55;0.55;;;13.90;99.90;;;;;;4992915;28;20049;-90
2023/08/09 03:27:02;;;;;;;0.60;0.60;;;13.50;99.90;;;;;;4994014;28;20104;-95
2023/08/09 03:29:28;;;;;;;0.50;0.50;;;13.90;99.90;;;;;;4991882;28;20120;-90
2023/08/09 03:31:54;;;;;;;0.60;0.60;;;13.70;99.90;;;;;;4991337;28;20056;-93
2023/08/09 03:34:33;;;;;;;0.50;0.50;;;13.60;99.90;;;;;;4993633;28;20473;-94
2023/08/09 03:37:10;;;;;;;0.60;0.60;;;13.90;99.90;;;;;;4994047;28;20045;-90
2023/08/09 03:39:58;;;;;;;0.50;0.50;;;13.70;99.90;;;;;;4995022;28;20140;-94
2023/08/09 03:42:27;;;;;;;0.50;0.50;;;13.80;99.90;;;;;;4993892;28;20072;-93
2023/08/09 03:44:53;;;;;;;0.60;0.60;;;13.30;99.90;;;;;;4994674;28;20038;-94
2023/08/09 03:47:19;;;;;;;0.50;0.50;;;13.30;99.90;;;;;;4993284;28;20058;-91
2023/08/09 03:49:47;;;;;;;0.60;0.60;;;13.30;99.90;;;;;;4993887;28;20264;-93
2023/08/09 03:52:35;;;;;;;0.60;0.60;;;13.60;99.90;;;;;;4991401;28;20096;-93
2023/08/09 03:55:08;;;;;;;0.60;0.60;;;13.40;99.90;;;;;;4994273;28;20046;-92
2023/08/09 03:57:34;;;;;;;0.50;0.50;;;13.40;99.90;;;;;;4991879;28;20092;-91
2023/08/09 04:00:17;;;;;;;0.60;0.60;;;13.20;99.90;;;;;;4993746;28;20084;-95
2023/08/09 04:10:01;;;;;;;0.50;0.50;;;13.20;99.90;;;;;;4981069;28;20057;-95
2023/08/09 04:16:43;;;;;;;;;;;;;;;;;;;;;
2023/08/09 04:23:49;;;;;;;0.50;0.50;;;13.50;99.90;;;;;;4837241;29;20919;-96
2023/08/09 04:51:05;;;;;;;0.60;0.60;;;13.60;99.90;;;;;;5005785;28;19924;-94
2023/08/09 05:26:33;;;;;;;0.75;0.75;;;13.70;99.90;;;;;;5158674;23;20057;-96
2023/08/09 05:42:18;;;;;;;0.60;0.60;;;14.10;99.90;;;;;;5379318;23;20077;-95
2023/08/09 05:49:03;;;;;;;0.55;0.55;;;14.20;99.90;;;;;;5027568;28;20041;-92
2023/08/09 06:02:02;;;;;;;0.60;0.60;;;14.50;99.90;;;;;;4957528;28;20038;-96
2023/08/09 06:13:15;;;;;;;;;;;;;;;;;;;;;
2023/08/09 06:30:43;;;;;;;0.60;0.60;;;14.80;99.90;;;;;;4861200;29;20053;-95
2023/08/09 06:33:47;;;;;;;0.60;0.60;;;14.90;99.90;;;;;;4903290;29;20139;-95
2023/08/09 06:36:15;;;;;;;0.60;0.60;;;14.80;99.90;;;;;;4863557;29;20068;-94
2023/08/09 06:46:49;;;;;;;0.63;0.63;;;15.60;99.90;;;;;;4999395;28;20037;-94
2023/08/09 06:49:23;;;;;;;0.63;0.63;;;15.80;99.90;;;;;;4973980;28;20050;-92
2023/08/09 06:52:30;;;;;;;0.70;0.70;;;15.90;99.90;;;;;;4972887;28;20045;-95
2023/08/09 06:55:22;;;;;;;;;;;;;;;;;;;;;
2023/08/09 06:58:13;;;;;;;0.70;0.70;;;16.00;99.90;;;;;;4936734;29;20122;-96
2023/08/09 07:04:21;;;;;;;0.60;0.60;;;16.60;99.90;;;;;;4973541;28;20454;-93
2023/08/09 07:07:42;;;;;;;0.68;0.68;;;16.90;99.90;;;;;;4997452;28;20042;-96
2023/08/09 07:10:14;;;;;;;0.80;0.80;;;17.10;99.90;;;;;;4997908;28;20056;-93
2023/08/09 07:19:50;;;;;;;0.70;0.70;;;17.40;99.90;;;;;;5017629;28;20037;-94
2023/08/09 07:23:05;;;;;;;0.80;0.80;;;17.60;99.90;;;;;;5018738;28;20148;-95
2023/08/09 07:25:41;;;;;;;0.70;0.70;;;17.80;99.90;;;;;;5000523;28;20046;-95
2023/08/09 07:36:09;;;;;;;0.85;0.85;;;18.10;99.90;;;;;;4885331;29;20048;-96
2023/08/09 07:46:45;;;;;;;0.70;0.70;;;18.60;99.90;;;;;;4956152;29;20051;-93
2023/08/09 07:56:36;;;;;;;0.70;0.70;;;18.80;99.90;;;;;;4849982;29;20392;-93
2023/08/09 08:08:34;;;;;;;0.65;0.65;;;19.20;99.90;;;;;;4897450;29;20052;-92
2023/08/09 08:11:00;;;;;;;0.68;0.68;;;19.30;99.90;;;;;;4898785;29;20047;-92
2023/08/09 08:13:25;;;;;;;0.60;0.60;;;19.20;99.90;;;;;;4898357;29;20052;-91
2023/08/09 08:16:31;;;;;;;0.60;0.60;;;19.30;99.90;;;;;;4901315;29;20046;-94
2023/08/09 08:19:00;;;;;;;0.57;0.57;;;19.60;99.90;;;;;;4924499;28;20148;-94
2023/08/09 08:22:11;;;;;;;0.60;0.60;;;19.60;99.90;;;;;;4982636;28;20081;-94
2023/08/09 08:24:42;;;;;;;0.60;0.60;;;19.60;99.90;;;;;;4952483;28;20058;-96
2023/08/09 08:27:12;;;;;;;0.70;0.70;;;19.70;99.90;;;;;;4968359;28;20556;-95
2023/08/09 08:30:08;;;;;;;0.60;0.60;;;19.80;99.90;;;;;;4965495;28;20053;-95
2023/08/09 08:32:37;;;;;;;0.68;0.68;;;19.90;99.90;;;;;;4968449;28;20042;-90
2023/08/09 08:35:03;;;;;;;0.65;0.65;;;19.90;99.90;;;;;;4974597;28;20038;-90
2023/08/09 08:37:29;;;;;;;0.60;0.60;;;20.00;99.90;;;;;;4987762;28;20052;-90
2023/08/09 08:39:55;;;;;;;0.60;0.60;;;20.10;99.90;;;;;;5004252;28;20137;-93
2023/08/09 08:42:21;;;;;;;0.50;0.50;;;20.10;99.90;;;;;;4990639;28;20158;-89
2023/08/09 08:44:47;;;;;;;0.50;0.50;;;20.20;99.90;;;;;;5001115;28;20105;-92
2023/08/09 08:47:13;;;;;;;0.50;0.50;;;20.00;99.90;;;;;;4990980;28;20128;-89
2023/08/09 08:49:46;;;;;;;0.60;0.60;;;20.20;99.90;;;;;;4989654;28;20101;-92
2023/08/09 08:52:14;;;;;;;0.60;0.60;;;20.30;99.90;;;;;;4988475;28;20120;-91
2023/08/09 08:54:40;;;;;;;0.50;0.50;;;20.50;99.90;;;;;;5002365;28;20053;-91
2023/08/09 08:57:08;;;;;;;0.60;0.60;;;20.50;99.90;;;;;;4980651;28;20053;-91
2023/08/09 08:59:42;;;;;;;0.40;0.40;;;20.70;99.90;;;;;;4997890;28;20495;-90
2023/08/09 09:02:08;;;;;;;0.50;0.50;;;20.80;99.90;;;;;;4990930;28;20057;-89
2023/08/09 09:04:48;;;;;;;0.50;0.50;;;20.90;99.90;;;;;;4984635;28;20042;-95
2023/08/09 09:07:50;;;;;;;0.60;0.60;;;20.90;99.90;;;;;;4992415;28;20120;-95
2023/08/09 09:10:17;;;;;;;0.50;0.50;;;21.10;99.90;;;;;;4999115;28;20038;-91
2023/08/09 09:12:49;;;;;;;0.50;0.50;;;20.80;99.90;;;;;;4990305;28;20447;-93
2023/08/09 09:15:29;;;;;;;0.57;0.57;;;21.00;99.90;;;;;;4992665;28;20050;-91
2023/08/09 09:17:55;;;;;;;0.60;0.60;;;21.10;99.90;;;;;;4982188;28;20050;-91
2023/08/09 09:20:23;;;;;;;0.70;0.70;;;21.30;99.90;;;;;;4989985;28;20072;-88
2023/08/09 09:22:49;;;;;;;0.60;0.60;;;21.30;99.90;;;;;;4988545;28;20058;-90
2023/08/09 09:25:17;;;;;;;0.65;0.65;;;21.50;99.90;;;;;;4983933;28;20045;-89
2023/08/09 09:27:50;;;;;;;0.60;0.60;;;21.40;99.90;;;;;;4983903;28;20491;-89
2023/08/09 09:30:29;;;;;;;0.52;0.52;;;21.60;99.90;;;;;;5024450;28;20049;-96
2023/08/09 09:33:03;;;;;;;0.50;0.50;;;21.40;99.90;;;;;;4989273;28;20074;-93
2023/08/09 09:35:33;;;;;;;0.50;0.50;;;21.30;99.90;;;;;;4986342;28;20620;-87
2023/08/09 09:37:59;;;;;;;0.47;0.47;;;21.60;99.90;;;;;;4988437;28;20132;-90
2023/08/09 09:40:30;;;;;;;0.60;0.60;;;21.70;99.90;;;;;;4983133;28;20042;-86
2023/08/09 09:43:04;;;;;;;0.50;0.50;;;21.80;99.90;;;;;;4998918;28;20068;-91
2023/08/09 09:45:31;;;;;;;0.40;0.40;;;21.30;99.90;;;;;;5001957;28;20039;-93
2023/08/09 09:47:58;;;;;;;0.57;0.57;;;21.50;99.90;;;;;;4996768;28;20042;-90
2023/08/09 09:50:28;;;;;;;0.40;0.40;;;21.60;99.90;;;;;;4984023;28;20049;-89
2023/08/09 09:53:00;;;;;;;0.50;0.50;;;21.60;99.90;;;;;;5002657;28;20050;-91
2023/08/09 09:55:27;;;;;;;0.57;0.57;;;21.70;99.90;;;;;;4982139;28;20048;-90
2023/08/09 09:58:14;;;;;;;0.60;0.60;;;21.90;99.90;;;;;;4985770;28;20467;-89
2023/08/09 10:04:19;;;;;;;0.60;0.60;;;22.40;99.90;;;;;;5004027;28;20138;-88
2023/08/09 10:06:47;;;;;;;0.70;0.70;;;21.70;99.90;;;;;;5001017;28;20138;-88
2023/08/09 10:09:32;;;;;;;0.60;0.60;;;21.30;99.90;;;;;;4984185;28;20053;-94
2023/08/09 10:11:59;;;;;;;0.60;0.60;;;21.30;99.90;;;;;;4992647;28;20046;-85
2023/08/09 10:14:29;;;;;;;0.65;0.65;;;21.90;99.90;;;;;;5000292;28;20045;-88
2023/08/09 10:16:55;;;;;;;0.60;0.60;;;22.00;99.90;;;;;;5003683;28;20042;-87
2023/08/09 10:19:23;;;;;;;0.60;0.60;;;22.20;99.90;;;;;;5004653;28;20046;-88
2023/08/09 10:21:52;;;;;;;0.60;0.60;;;21.70;99.90;;;;;;4997623;28;20049;-88
2023/08/09 10:24:18;;;;;;;0.70;0.70;;;21.50;99.90;;;;;;4979740;28;20057;-88
2023/08/09 10:26:49;;;;;;;0.70;0.70;;;21.50;99.90;;;;;;4985535;28;20054;-88
2023/08/09 10:29:21;;;;;;;0.60;0.60;;;21.30;99.90;;;;;;4980589;28;20030;-88
2023/08/09 10:31:57;;;;;;;0.60;0.60;;;21.10;99.90;;;;;;4985065;28;20054;-91
2023/08/09 10:34:42;;;;;;;0.50;0.50;;;21.10;99.90;;;;;;5004553;28;20127;-86
2023/08/09 10:37:23;;;;;;;0.60;0.60;;;21.70;99.90;;;;;;4981095;28;20060;-93
2023/08/09 10:40:15;;;;;;;0.60;0.60;;;21.90;99.90;;;;;;4986954;28;20104;-89
2023/08/09 10:42:47;;;;;;;0.60;0.60;;;22.00;99.90;;;;;;5002084;28;20042;-86
2023/08/09 10:45:19;;;;;;;0.60;0.60;;;21.90;99.90;;;;;;4999334;28;20046;-93
2023/08/09 10:47:45;;;;;;;0.60;0.60;;;21.50;99.90;;;;;;4998846;28;20050;-92
2023/08/09 10:50:14;;;;;;;0.70;0.70;;;21.20;99.90;;;;;;4987137;28;20050;-90
2023/08/09 10:52:47;;;;;;;0.60;0.60;;;21.20;99.90;;;;;;5014792;28;20113;-87
2023/08/09 10:55:19;;;;;;;0.60;0.60;;;21.30;99.90;;;;;;4995410;28;20050;-88
2023/08/09 10:57:48;;;;;;;0.60;0.60;;;21.50;99.90;;;;;;5000198;28;20810;-90
2023/08/09 11:00:21;;;;;;;0.60;0.60;;;21.60;99.90;;;;;;4984800;28;20116;-94
2023/08/09 11:02:56;;;;;;;0.60;0.60;;;21.80;99.90;;;;;;4988495;28;20045;-93
2023/08/09 11:05:23;;;;;;;0.70;0.70;;;22.10;99.90;;;;;;4991213;28;20041;-89
2023/08/09 11:07:51;;;;;;;0.60;0.60;;;22.60;99.90;;;;;;4999619;28;20192;-87
2023/08/09 11:10:33;;;;;;;0.50;0.50;;;22.30;99.90;;;;;;4999030;28;20506;-94
2023/08/09 11:13:18;;;;;;;0.50;0.50;;;22.70;99.90;;;;;;4992200;28;20103;-86
2023/08/09 11:15:47;;;;;;;0.50;0.50;;;23.20;99.90;;;;;;4988149;28;20049;-86
2023/08/09 11:18:13;;;;;;;0.40;0.40;;;22.50;99.90;;;;;;4987489;28;20100;-90
2023/08/09 11:20:39;;;;;;;0.50;0.50;;;23.00;99.90;;;;;;4986528;28;20054;-89
2023/08/09 11:23:05;;;;;;;0.50;0.50;;;22.30;99.90;;;;;;5006217;28;20045;-88
2023/08/09 11:25:33;;;;;;;0.60;0.60;;;22.70;99.90;;;;;;5000238;28;20388;-88
2023/08/09 11:28:01;;;;;;;0.60;0.60;;;22.40;99.90;;;;;;4978285;28;20566;-90
2023/08/09 11:30:31;;;;;;;0.65;0.65;;;22.00;99.90;;;;;;5000959;28;20075;-89
2023/08/09 11:33:05;;;;;;;0.60;0.60;;;22.00;99.90;;;;;;4987541;28;20123;-89
2023/08/09 11:35:40;;;;;;;0.50;0.50;;;21.60;99.90;;;;;;4998469;28;20168;-93
2023/08/09 11:38:09;;;;;;;0.50;0.50;;;21.50;99.90;;;;;;4995293;28;20103;-90
2023/08/09 11:40:44;;;;;;;0.60;0.60;;;21.20;99.90;;;;;;5003688;28;20064;-90
2023/08/09 11:43:20;;;;;;;0.55;0.55;;;21.00;99.90;;;;;;4985062;28;20190;-93
2023/08/09 11:45:54;;;;;;;0.70;0.70;;;21.10;99.90;;;;;;4984136;28;20399;-90
2023/08/09 11:48:31;;;;;;;0.60;0.60;;;21.00;99.90;;;;;;5004744;28;20050;-93
2023/08/09 11:51:21;;;;;;;0.60;0.60;;;21.20;99.90;;;;;;4985395;28;20080;-90
2023/08/09 11:54:07;;;;;;;;;;;;;;;;;;;;;
2023/08/09 11:56:37;;;;;;;0.60;0.60;;;21.70;99.90;;;;;;5002612;28;20054;-91
2023/08/09 11:59:11;;;;;;;0.60;0.60;;;22.40;99.90;;;;;;4984517;28;20042;-92
2023/08/09 12:01:45;;;;;;;0.60;0.60;;;22.80;99.90;;;;;;4987375;28;20057;-89
2023/08/09 12:04:21;;;;;;;0.60;0.60;;;23.20;99.90;;;;;;5000363;28;20457;-91
2023/08/09 12:06:55;;;;;;;0.60;0.60;;;23.60;99.90;;;;;;4986320;28;20495;-94
2023/08/09 12:09:42;;;;;;;0.40;0.40;;;23.90;99.90;;;;;;4995135;28;20042;-88
2023/08/09 12:12:16;;;;;;;0.40;0.40;;;24.20;99.90;;;;;;4976655;28;20054;-87
2023/08/09 12:14:44;;;;;;;;;;;23.90;99.90;;;;;;4982331;28;20132;-90
2023/08/09 12:17:31;;;;;;;0.40;0.40;;;23.10;99.90;;;;;;5011313;28;19974;-91
2023/08/09 12:20:06;;;;;;;0.50;0.50;;;23.80;99.90;;;;;;5000494;28;20050;-87
2023/08/09 12:22:33;;;;;;;0.30;0.30;;;23.80;99.90;;;;;;4994627;28;20046;-90
2023/08/09 12:25:10;;;;;;;0.40;0.40;;;23.90;99.90;;;;;;4984596;28;20112;-92
2023/08/09 12:27:36;;;;;;;0.30;0.30;;;24.00;99.90;;;;;;4989492;28;20109;-90
2023/08/09 12:30:02;;;;;;;0.30;0.30;;;24.50;99.90;;;;;;4982687;28;20177;-92
2023/08/09 12:32:29;;;;;;;0.40;0.40;;;23.60;99.90;;;;;;4983493;28;20583;-86
2023/08/09 12:34:55;;;;;;;0.30;0.30;;;24.20;99.90;;;;;;4984749;28;20417;-88
2023/08/09 12:37:21;;;;;;;0.30;0.30;;;24.00;99.90;;;;;;4995303;28;20134;-88
2023/08/09 12:39:48;;;;;;;0.30;0.30;;;24.00;99.90;;;;;;4997215;28;20146;-87
2023/08/09 12:42:19;;;;;;;0.30;0.30;;;23.70;99.90;;;;;;4980882;28;20081;-92
2023/08/09 12:44:45;;;;;;;0.30;0.30;;;24.30;99.90;;;;;;4982843;28;20050;-87
2023/08/09 12:47:11;;;;;;;0.40;0.40;;;24.60;99.90;;;;;;4979202;28;20132;-87
2023/08/09 12:49:36;;;;;;;0.30;0.30;;;24.20;99.90;;;;;;4984942;28;20061;-87
2023/08/09 12:52:02;;;;;;;0.30;0.30;;;23.70;99.90;;;;;;4973273;28;20050;-88
2023/08/09 12:54:28;;;;;;;0.30;0.30;;;23.30;99.90;;;;;;4995013;28;20046;-85
2023/08/09 12:56:54;;;;;;;0.25;0.25;;;23.60;99.90;;;;;;4991906;28;20038;-89
2023/08/09 12:59:19;;;;;;;0.40;0.40;;;24.40;99.90;;;;;;4980681;28;20092;-86
2023/08/09 13:01:45;;;;;;;0.30;0.30;;;23.80;99.90;;;;;;4992820;28;20484;-87
2023/08/09 13:04:12;;;;;;;0.30;0.30;;;23.30;99.90;;;;;;4994236;28;20161;-88
2023/08/09 13:06:38;;;;;;;0.30;0.30;;;23.40;99.90;;;;;;4979895;28;20042;-89
2023/08/09 13:09:08;;;;;;;0.30;0.30;;;24.00;99.90;;;;;;4986178;28;20065;-89
2023/08/09 13:11:34;;;;;;;0.30;0.30;;;24.50;99.90;;;;;;4998232;28;20104;-87
2023/08/09 13:13:59;;;;;;;0.30;0.30;;;24.60;99.90;;;;;;4982353;28;20573;-87
2023/08/09 13:16:25;;;;;;;0.30;0.30;;;24.80;99.90;;;;;;4992038;28;20173;-88
2023/08/09 13:18:53;;;;;;;0.30;0.30;;;24.20;99.90;;;;;;4994533;28;20096;-90
2023/08/09 13:21:19;;;;;;;0.30;0.30;;;23.90;99.90;;;;;;4983622;28;20046;-89
2023/08/09 13:23:45;;;;;;;0.30;0.30;;;23.70;99.90;;;;;;4978491;28;20069;-88
2023/08/09 13:26:11;;;;;;;0.30;0.30;;;23.10;99.90;;;;;;4998752;28;20103;-88
2023/08/09 13:28:37;;;;;;;0.30;0.30;;;22.80;99.90;;;;;;4985490;28;20542;-90
2023/08/09 13:31:03;;;;;;;0.40;0.40;;;22.60;99.90;;;;;;4981464;28;20042;-88
2023/08/09 13:33:29;;;;;;;0.40;0.40;;;22.10;99.90;;;;;;5002958;28;20057;-90
2023/08/09 13:35:55;;;;;;;0.38;0.38;;;22.00;99.90;;;;;;4986280;28;20115;-91
2023/08/09 13:38:29;;;;;;;0.40;0.40;;;21.80;99.90;;;;;;4980662;28;20377;-92
2023/08/09 13:40:57;;;;;;;0.40;0.40;;;22.00;99.90;;;;;;4987569;28;20070;-91
2023/08/09 13:43:23;;;;;;;0.40;0.40;;;22.10;99.90;;;;;;4999665;28;20502;-88
2023/08/09 13:45:51;;;;;;;0.40;0.40;;;22.10;99.90;;;;;;4980349;28;20057;-90
2023/08/09 13:48:17;;;;;;;0.50;0.50;;;21.80;99.90;;;;;;4988018;28;20041;-91
2023/08/09 13:50:46;;;;;;;0.40;0.40;;;21.60;99.90;;;;;;4980155;28;20500;-90
2023/08/09 13:53:12;;;;;;;0.50;0.50;;;21.60;99.90;;;;;;4991184;28;20108;-87
2023/08/09 13:55:38;;;;;;;0.50;0.50;;;21.70;99.90;;;;;;5001880;28;20054;-92
2023/08/09 13:58:04;;;;;;;0.50;0.50;;;22.00;99.90;;;;;;4980056;28;20046;-92
2023/08/09 14:00:30;;;;;;;0.50;0.50;;;22.40;99.90;;;;;;4983017;28;20049;-91
2023/08/09 14:02:56;;;;;;;0.50;0.50;;;22.40;99.90;;;;;;4986902;28;20038;-90
2023/08/09 14:05:24;;;;;;;0.55;0.55;;;22.00;99.90;;;;;;4984989;28;20512;-92
2023/08/09 14:07:50;;;;;;;0.52;0.52;;;21.90;99.90;;;;;;4980950;28;20046;-89
2023/08/09 14:10:16;;;;;;;0.50;0.50;;;21.60;99.90;;;;;;4987270;28;20077;-86
2023/08/09 14:12:41;;;;;;;0.60;0.60;;;21.30;99.90;;;;;;4978053;28;20566;-90
2023/08/09 14:15:08;;;;;;;0.50;0.50;;;21.30;99.90;;;;;;4996761;28;20123;-91
2023/08/09 14:17:34;;;;;;;0.50;0.50;;;21.90;99.90;;;;;;4989731;28;20079;-87
2023/08/09 14:20:00;;;;;;;0.50;0.50;;;21.80;99.90;;;;;;4985908;28;20057;-88
2023/08/09 14:22:26;;;;;;;0.50;0.50;;;22.20;99.90;;;;;;4985104;28;20081;-89
2023/08/09 14:24:51;;;;;;;0.50;0.50;;;22.60;99.90;;;;;;4985452;28;20070;-89
2023/08/09 14:27:17;;;;;;;0.50;0.50;;;22.60;99.90;;;;;;4993327;28;20060;-90
2023/08/09 14:29:45;;;;;;;0.60;0.60;;;22.50;99.90;;;;;;4982420;28;20045;-91
2023/08/09 14:32:11;;;;;;;0.60;0.60;;;22.30;99.90;;;;;;4987007;28;20046;-90
2023/08/09 14:34:37;;;;;;;0.60;0.60;;;22.10;99.90;;;;;;4980940;28;20851;-89
2023/08/09 14:37:04;;;;;;;0.60;0.60;;;22.50;99.90;;;;;;4980762;28;20038;-89
2023/08/09 14:39:29;;;;;;;0.57;0.57;;;22.90;99.90;;;;;;4980763;28;20132;-89
2023/08/09 14:41:55;;;;;;;0.50;0.50;;;22.70;99.90;;;;;;4994298;28;20070;-90
2023/08/09 14:44:24;;;;;;;0.50;0.50;;;23.00;99.90;;;;;;4996107;28;20129;-91
2023/08/09 14:46:52;;;;;;;0.40;0.40;;;22.70;99.90;;;;;;4998031;28;20054;-87
2023/08/09 14:49:27;;;;;;;0.40;0.40;;;22.60;99.90;;;;;;4996924;28;20050;-90
2023/08/09 14:51:53;;;;;;;0.40;0.40;;;22.80;99.90;;;;;;4979757;28;20077;-90
2023/08/09 14:54:18;;;;;;;0.45;0.45;;;22.90;99.90;;;;;;5000643;28;20089;-86
2023/08/09 14:56:44;;;;;;;0.40;0.40;;;23.20;99.90;;;;;;4995735;28;20109;-89
2023/08/09 14:59:10;;;;;;;0.40;0.40;;;23.00;99.90;;;;;;4983871;28;20133;-87
2023/08/09 15:01:39;;;;;;;0.40;0.40;;;23.10;99.90;;;;;;4985002;28;20080;-89
2023/08/09 15:04:14;;;;;;;0.40;0.40;;;23.40;99.90;;;;;;4985527;28;20038;-87
2023/08/09 15:06:41;;;;;;;0.40;0.40;;;23.10;99.90;;;;;;4994457;28;20154;-89
2023/08/09 15:09:10;;;;;;;0.40;0.40;;;23.30;99.90;;;;;;4980580;28;20141;-88
2023/08/09 15:11:37;;;;;;;0.30;0.30;;;23.10;99.90;;;;;;4986299;28;20053;-90
2023/08/09 15:14:03;;;;;;;0.40;0.40;;;23.10;99.90;;;;;;4977816;28;20111;-89
2023/08/09 15:16:28;;;;;;;0.40;0.40;;;23.00;99.90;;;;;;4991026;28;20058;-90
2023/08/09 15:18:54;;;;;;;0.40;0.40;;;23.20;99.90;;;;;;4976188;28;20132;-90
2023/08/09 15:21:20;;;;;;;0.32;0.32;;;22.90;99.90;;;;;;4982010;28;20045;-87
2023/08/09 15:23:45;;;;;;;0.40;0.40;;;23.20;99.90;;;;;;4982095;28;20077;-89
2023/08/09 15:26:11;;;;;;;0.50;0.50;;;23.00;99.90;;;;;;4979134;28;20050;-89
2023/08/09 15:28:37;;;;;;;0.38;0.38;;;22.90;99.90;;;;;;4981334;28;20445;-87
2023/08/09 15:31:03;;;;;;;0.50;0.50;;;22.90;99.90;;;;;;4983642;28;20049;-89
2023/08/09 15:33:32;;;;;;;0.50;0.50;;;22.90;99.90;;;;;;4995451;28;20064;-94
2023/08/09 15:35:57;;;;;;;0.50;0.50;;;22.40;99.90;;;;;;4995025;28;20041;-87
2023/08/09 15:38:23;;;;;;;0.50;0.50;;;22.20;99.90;;;;;;4995468;28;20502;-86
2023/08/09 15:40:49;;;;;;;0.68;0.68;;;22.00;99.90;;;;;;4996955;28;20064;-90
2023/08/09 15:43:14;;;;;;;0.70;0.70;;;21.70;99.90;;;;;;4979343;28;20047;-87
2023/08/09 15:45:40;;;;;;;0.70;0.70;;;21.60;99.90;;;;;;4996574;28;20037;-89
2023/08/09 15:48:06;;;;;;;0.60;0.60;;;21.50;99.90;;;;;;4987256;28;20045;-90
2023/08/09 15:50:32;;;;;;;0.60;0.60;;;21.60;99.90;;;;;;4979825;28;20041;-88
2023/08/09 15:52:57;;;;;;;0.80;0.80;;;21.60;99.90;;;;;;5000213;28;20046;-87
2023/08/09 15:55:27;;;;;;;0.50;0.50;;;21.70;99.90;;;;;;4979071;28;20076;-93
2023/08/09 15:57:53;;;;;;;0.57;0.57;;;22.00;99.90;;;;;;4986715;28;20045;-86
2023/08/09 16:00:19;;;;;;;0.60;0.60;;;21.80;99.90;;;;;;4992254;28;20754;-91
2023/08/09 16:02:45;;;;;;;0.70;0.70;;;21.90;99.90;;;;;;4993076;28;20100;-88
2023/08/09 16:05:12;;;;;;;0.60;0.60;;;21.50;99.90;;;;;;4982421;28;20049;-90
2023/08/09 16:07:38;;;;;;;0.70;0.70;;;21.50;99.90;;;;;;4979888;28;20045;-89
2023/08/09 16:10:06;;;;;;;0.70;0.70;;;21.50;99.90;;;;;;4980345;28;20137;-86
2023/08/09 16:12:32;;;;;;;0.63;0.63;;;21.50;99.90;;;;;;4997379;28;20050;-89